Time;durP1;ratioP1;P1;durP2;ratioP2;P2;SDS_P1;SDS_P2;PMS_P1;PMS_P2;Temp;Humidity;BMP_temperature;BMP_pressure;BME280_temperature;BME280_humidity;BME280_pressure;Samples;Min_cycle;Max_cycle;Signal;HPM_P1;HPM_P2
2022/03/08 00:00:46;;;;;;;8.07;5.37;;;1.90;99.90;;;2.85;85.71;-19823.75;5112246;28;20223;-61
2022/03/08 00:03:14;;;;;;;8.60;6.10;;;1.90;99.90;;;2.76;85.80;-19820.84;5111958;28;20318;-60
2022/03/08 00:05:43;;;;;;;8.57;5.90;;;1.90;99.90;;;2.76;85.66;-19820.69;5104141;28;20237;-61
2022/03/08 00:08:12;;;;;;;6.70;5.77;;;1.90;99.90;;;2.55;87.13;-19813.50;5092254;28;20202;-60
2022/03/08 00:10:40;;;;;;;8.97;5.83;;;1.80;99.90;;;2.27;88.75;-19804.28;5091414;28;20238;-60
2022/03/08 00:13:08;;;;;;;8.27;6.07;;;1.70;99.90;;;2.34;89.18;-19806.66;5091388;28;20238;-59
2022/03/08 00:15:36;;;;;;;7.60;5.47;;;1.70;99.90;;;2.25;89.15;-19803.59;5091514;28;20315;-60
2022/03/08 00:18:05;;;;;;;7.10;5.63;;;1.60;99.90;;;2.48;87.24;-19811.47;5091517;28;20223;-60
2022/03/08 00:20:33;;;;;;;6.83;5.90;;;1.60;99.90;;;2.60;86.34;-19815.22;5091908;28;20294;-57
2022/03/08 00:23:03;;;;;;;9.43;6.23;;;1.70;99.90;;;2.68;86.57;-19817.94;5092115;28;20199;-61
2022/03/08 00:25:31;;;;;;;6.93;6.20;;;1.70;99.90;;;2.58;86.78;-19814.69;5091390;28;20254;-60
2022/03/08 00:27:59;;;;;;;9.53;6.03;;;1.70;99.90;;;2.50;86.31;-19812.13;5091419;28;20322;-60
2022/03/08 00:30:29;;;;;;;7.50;5.50;;;1.70;99.90;;;2.55;86.68;-19813.69;5091549;28;20240;-59
2022/03/08 00:32:57;;;;;;;7.57;5.60;;;1.70;99.90;;;2.52;86.73;-19812.47;5075060;28;20224;-59
2022/03/08 00:35:26;;;;;;;8.17;5.60;;;1.70;99.90;;;2.72;85.94;-19819.31;5076836;28;20196;-60
2022/03/08 00:37:59;;;;;;;8.87;6.07;;;1.70;99.90;;;2.56;85.90;-19814.00;5091235;28;20230;-59
2022/03/08 00:40:28;;;;;;;6.93;5.57;;;1.70;99.90;;;2.42;86.82;-19809.22;5091315;28;20258;-60
2022/03/08 00:42:56;;;;;;;7.97;5.20;;;1.70;99.90;;;2.08;88.69;-19797.59;5091275;28;20299;-62
2022/03/08 00:45:24;;;;;;;8.43;5.70;;;1.50;99.90;;;2.06;89.32;-19797.09;5090878;28;20308;-59
2022/03/08 00:47:52;;;;;;;8.63;5.10;;;1.40;99.90;;;1.87;90.85;-19790.59;5091090;28;21675;-61
2022/03/08 00:50:24;;;;;;;7.43;5.27;;;1.30;99.90;;;2.05;89.81;-19796.56;5091755;28;20303;-59
2022/03/08 00:52:54;;;;;;;6.70;4.83;;;1.30;99.90;;;2.07;89.89;-19797.25;5090794;28;20238;-61
2022/03/08 00:55:23;;;;;;;8.50;5.30;;;1.30;99.90;;;2.40;88.08;-19808.72;5090867;28;20315;-59
2022/03/08 00:57:55;;;;;;;8.00;4.83;;;1.40;99.90;;;2.39;87.61;-19808.19;5090519;28;20302;-61
2022/03/08 01:00:28;;;;;;;5.57;4.50;;;1.40;99.90;;;2.44;87.20;-19810.09;5090503;28;20239;-60
2022/03/08 01:02:56;;;;;;;6.10;4.87;;;1.50;99.90;;;2.26;87.69;-19803.94;5090677;28;20227;-60
2022/03/08 01:05:25;;;;;;;6.03;4.50;;;1.50;99.90;;;2.31;88.16;-19805.47;5091236;28;20199;-61
2022/03/08 01:07:54;;;;;;;7.87;5.13;;;1.50;99.90;;;2.07;88.78;-19797.25;5090655;28;20270;-59
2022/03/08 01:10:25;;;;;;;6.03;4.60;;;1.40;99.90;;;2.01;89.87;-19795.22;5090424;28;20603;-61
2022/03/08 01:12:55;;;;;;;6.80;4.70;;;1.30;99.90;;;1.97;90.34;-19794.00;5090386;28;20657;-60
2022/03/08 01:15:26;;;;;;;8.47;4.90;;;1.30;99.90;;;1.91;91.02;-19791.97;5090671;28;20303;-58
2022/03/08 01:17:56;;;;;;;7.57;4.97;;;1.20;99.90;;;2.08;89.89;-19797.78;5090723;28;20223;-59
2022/03/08 01:20:25;;;;;;;7.40;4.93;;;1.20;99.90;;;1.82;90.90;-19788.72;5090873;28;20223;-60
2022/03/08 01:22:54;;;;;;;6.67;5.10;;;1.20;99.90;;;1.85;91.25;-19789.75;5090507;28;20310;-58
2022/03/08 01:25:23;;;;;;;5.83;4.73;;;1.10;99.90;;;1.68;92.82;-19784.09;5090390;28;20663;-60
2022/03/08 01:27:53;;;;;;;6.50;4.50;;;1.00;99.90;;;1.70;92.67;-19784.59;5090676;28;20247;-60
2022/03/08 01:30:24;;;;;;;6.40;4.87;;;0.90;99.90;;;1.74;92.55;-19786.16;5090588;28;20231;-59
2022/03/08 01:32:53;;;;;;;6.27;4.70;;;0.90;99.90;;;1.75;92.17;-19786.50;5089966;28;20233;-60
2022/03/08 01:35:22;;;;;;;7.80;4.40;;;0.90;99.90;;;1.70;92.56;-19784.78;5090915;28;20299;-60
2022/03/08 01:37:50;;;;;;;8.07;4.77;;;0.90;99.90;;;1.71;92.96;-19784.97;5090839;28;20372;-60
2022/03/08 01:40:19;;;;;;;5.47;4.60;;;0.90;99.90;;;1.74;92.72;-19785.97;5090466;28;20249;-61
2022/03/08 01:42:50;;;;;;;8.03;4.60;;;0.90;99.90;;;1.70;92.64;-19784.78;5090535;28;20227;-59
2022/03/08 01:45:23;;;;;;;6.73;4.47;;;0.90;99.90;;;1.61;93.51;-19781.69;5090409;28;20713;-58
2022/03/08 01:47:53;;;;;;;6.60;4.20;;;0.80;99.90;;;1.56;94.11;-19779.81;5090521;28;20234;-59
2022/03/08 01:50:22;;;;;;;7.93;4.60;;;0.80;99.90;;;1.28;95.24;-19770.41;5090646;28;20223;-60
2022/03/08 01:52:51;;;;;;;7.40;4.60;;;0.70;99.90;;;1.29;96.78;-19770.75;5090183;28;20745;-60
2022/03/08 01:55:20;;;;;;;5.73;4.13;;;0.60;99.90;;;1.26;96.11;-19769.75;5090077;28;20310;-59
2022/03/08 01:57:51;;;;;;;5.80;4.67;;;0.60;99.90;;;0.96;98.16;-19759.47;5090314;28;20725;-61
2022/03/08 02:00:24;;;;;;;5.83;4.80;;;0.50;99.90;;;0.86;100.00;-19756.06;5090050;28;20307;-60
2022/03/08 02:02:53;;;;;;;5.97;4.70;;;0.40;99.90;;;0.92;100.00;-19758.13;5089850;28;21169;-60
2022/03/08 02:05:24;;;;;;;5.73;4.53;;;0.30;99.90;;;0.80;100.00;-19754.19;5090682;28;20298;-61
2022/03/08 02:07:52;;;;;;;6.43;4.73;;;0.20;99.90;;;0.74;100.00;-19751.97;5090097;28;20314;-59
2022/03/08 02:10:20;;;;;;;7.17;5.13;;;0.20;99.90;;;0.82;100.00;-19754.88;5090343;28;20233;-59
2022/03/08 02:12:49;;;;;;;6.77;5.00;;;0.10;99.90;;;0.64;100.00;-19748.72;5094027;28;20224;-58
2022/03/08 02:15:21;;;;;;;9.47;4.77;;;0.10;99.90;;;0.70;100.00;-19750.59;5094146;28;20273;-61
2022/03/08 02:17:50;;;;;;;6.90;4.83;;;0.00;99.90;;;0.47;100.00;-19742.91;5094104;28;20218;-59
2022/03/08 02:20:19;;;;;;;6.43;4.80;;;0.00;99.90;;;0.71;100.00;-19750.94;5094656;28;20200;-59
2022/03/08 02:22:50;;;;;;;5.40;4.77;;;0.00;99.90;;;0.62;100.00;-19748.03;5094183;28;20730;-59
2022/03/08 02:25:21;;;;;;;5.80;4.67;;;-0.10;99.90;;;0.58;100.00;-19746.47;5093943;28;20312;-59
2022/03/08 02:27:51;;;;;;;6.57;5.10;;;-0.10;99.90;;;0.68;100.00;-19749.91;5093637;28;20232;-59
2022/03/08 02:30:22;;;;;;;8.07;4.77;;;-0.10;99.90;;;0.70;100.00;-19750.75;5093671;28;20738;-60
2022/03/08 02:32:51;;;;;;;6.90;4.70;;;-0.10;99.90;;;0.65;100.00;-19748.88;5093580;28;20233;-59
2022/03/08 02:35:23;;;;;;;6.30;5.23;;;0.00;99.90;;;0.76;100.00;-19752.66;5094016;28;20225;-62
2022/03/08 02:37:55;;;;;;;5.70;4.53;;;0.00;99.90;;;0.80;100.00;-19754.00;5093620;28;20778;-61
2022/03/08 02:40:27;;;;;;;7.20;5.07;;;0.00;99.90;;;0.87;100.00;-19756.56;5093568;28;20311;-60
2022/03/08 02:42:55;;;;;;;6.13;5.00;;;0.00;99.90;;;0.94;100.00;-19758.78;5093315;28;20231;-60
2022/03/08 02:45:24;;;;;;;5.97;4.87;;;0.10;99.90;;;0.75;100.00;-19752.47;5093614;28;20306;-59
2022/03/08 02:47:53;;;;;;;6.23;4.70;;;0.10;99.90;;;0.88;100.00;-19756.75;5093032;28;20613;-60
2022/03/08 02:50:22;;;;;;;6.40;5.20;;;0.10;99.90;;;0.99;100.00;-19760.50;5094135;28;20287;-60
2022/03/08 02:52:54;;;;;;;6.57;4.67;;;0.10;99.90;;;0.90;100.00;-19757.59;5093160;28;20230;-60
2022/03/08 02:55:25;;;;;;;7.37;4.63;;;0.10;99.90;;;1.02;100.00;-19761.69;5093285;28;20227;-60
2022/03/08 02:57:55;;;;;;;5.60;4.53;;;0.20;99.90;;;1.04;100.00;-19762.38;5093042;28;20224;-60
2022/03/08 03:00:25;;;;;;;6.80;4.80;;;0.20;99.90;;;0.97;100.00;-19759.81;5093319;28;20212;-60
2022/03/08 03:02:54;;;;;;;7.40;4.43;;;0.20;99.90;;;1.11;100.00;-19764.59;5093095;28;20309;-60
2022/03/08 03:05:23;;;;;;;5.67;4.70;;;0.30;99.90;;;1.18;100.00;-19767.16;5093749;28;20197;-61
2022/03/08 03:07:53;;;;;;;7.23;4.73;;;0.30;99.90;;;1.13;100.00;-19765.28;5092881;28;20317;-59
2022/03/08 03:10:23;;;;;;;8.10;4.87;;;0.30;99.90;;;1.24;99.59;-19769.06;5092864;28;20231;-60
2022/03/08 03:12:55;;;;;;;6.40;4.63;;;0.40;99.90;;;1.27;100.00;-19769.91;5092653;28;20227;-60
2022/03/08 03:15:25;;;;;;;7.33;4.63;;;0.40;99.90;;;1.24;99.59;-19769.06;5092943;28;20307;-63
2022/03/08 03:17:53;;;;;;;5.57;4.50;;;0.40;99.90;;;1.17;100.00;-19766.84;5092718;28;20299;-60
2022/03/08 03:20:26;;;;;;;6.20;4.33;;;0.40;99.90;;;1.30;99.29;-19771.09;5093268;28;20291;-60
2022/03/08 03:22:55;;;;;;;5.67;4.60;;;0.40;99.90;;;1.29;98.92;-19770.59;5092213;28;20229;-58
2022/03/08 03:25:23;;;;;;;6.17;4.67;;;0.40;99.90;;;1.12;99.95;-19765.13;5092416;28;20702;-59
2022/03/08 03:27:51;;;;;;;6.63;5.10;;;0.30;99.90;;;0.93;100.00;-19758.63;5092671;28;20250;-59
2022/03/08 03:30:19;;;;;;;6.83;4.70;;;0.30;99.90;;;0.53;100.00;-19744.94;5093075;28;20224;-59
2022/03/08 03:32:48;;;;;;;7.43;4.43;;;0.10;99.90;;;0.44;100.00;-19741.88;5091840;28;20821;-61
2022/03/08 03:35:16;;;;;;;5.07;4.37;;;-0.10;99.90;;;0.27;100.00;-19736.06;5093225;28;20205;-60
2022/03/08 03:37:46;;;;;;;6.20;4.70;;;-0.20;99.90;;;0.25;100.00;-19735.19;5092352;28;20315;-60
2022/03/08 03:40:16;;;;;;;5.87;4.90;;;-0.30;99.90;;;0.81;100.00;-19754.53;5092495;28;20684;-59
2022/03/08 03:42:44;;;;;;;6.67;5.00;;;-0.20;99.90;;;0.92;100.00;-19758.13;5092063;28;20265;-61
2022/03/08 03:45:13;;;;;;;8.17;4.90;;;-0.10;99.90;;;0.67;100.00;-19749.75;5092308;28;20301;-58
2022/03/08 03:47:42;;;;;;;6.20;4.73;;;0.00;99.90;;;0.60;100.00;-19747.16;5091863;28;20654;-60
2022/03/08 03:50:11;;;;;;;6.50;4.60;;;-0.10;99.90;;;0.39;100.00;-19740.00;5092704;28;20754;-60
2022/03/08 03:52:39;;;;;;;6.37;5.37;;;-0.20;99.90;;;0.21;100.00;-19733.84;5092213;28;20258;-60
2022/03/08 03:55:12;;;;;;;8.67;5.00;;;-0.30;99.90;;;0.21;100.00;-19733.84;5092334;28;20292;-60
2022/03/08 03:57:42;;;;;;;7.27;5.00;;;-0.30;99.90;;;0.34;100.00;-19738.28;5091684;28;20312;-60
2022/03/08 04:00:15;;;;;;;6.73;4.73;;;-0.40;99.90;;;0.36;100.00;-19739.13;5092340;28;20303;-60
2022/03/08 04:02:44;;;;;;;7.17;4.77;;;-0.40;99.90;;;0.27;100.00;-19736.06;5091821;28;20268;-59
2022/03/08 04:05:14;;;;;;;7.70;4.90;;;-0.40;99.90;;;0.20;100.00;-19733.66;5092346;28;20218;-60
2022/03/08 04:07:42;;;;;;;8.70;4.87;;;-0.40;99.90;;;0.21;100.00;-19733.84;5091664;28;20254;-59
2022/03/08 04:10:15;;;;;;;8.67;5.43;;;-0.40;99.90;;;0.45;100.00;-19742.03;5091964;28;20233;-60
2022/03/08 04:12:45;;;;;;;7.07;4.67;;;-0.40;99.90;;;0.59;100.00;-19746.81;5091612;28;20224;-61
2022/03/08 04:15:13;;;;;;;5.50;4.73;;;-0.30;99.90;;;0.52;100.00;-19744.59;5091569;28;20225;-59
2022/03/08 04:17:41;;;;;;;6.57;4.47;;;-0.30;99.90;;;0.43;100.00;-19741.34;5091960;28;20291;-59
2022/03/08 04:20:11;;;;;;;7.20;4.80;;;-0.30;99.90;;;0.45;100.00;-19742.03;5091988;28;20202;-60
2022/03/08 04:22:39;;;;;;;6.93;5.00;;;-0.40;99.90;;;0.32;100.00;-19737.59;5091676;28;20708;-59
2022/03/08 04:25:09;;;;;;;6.63;5.00;;;-0.40;99.90;;;0.44;100.00;-19741.88;5091536;28;20224;-60
2022/03/08 04:27:37;;;;;;;7.83;5.67;;;-0.40;99.90;;;0.49;100.00;-19743.41;5091087;28;20234;-60
2022/03/08 04:30:09;;;;;;;7.17;5.33;;;-0.30;99.90;;;0.37;100.00;-19739.47;5091733;28;20243;-59
2022/03/08 04:32:38;;;;;;;6.93;5.20;;;-0.30;99.90;;;0.35;100.00;-19738.63;5090741;28;20217;-61
2022/03/08 04:35:07;;;;;;;5.80;5.07;;;-0.30;99.90;;;0.16;100.00;-19732.13;5091427;28;20718;-60
2022/03/08 04:37:36;;;;;;;8.03;5.10;;;-0.40;99.90;;;0.04;100.00;-19728.19;5091018;28;20637;-61
2022/03/08 04:40:07;;;;;;;10.23;5.10;;;-0.50;99.90;;;0.41;100.00;-19740.66;5091472;28;20230;-60
2022/03/08 04:42:35;;;;;;;6.90;5.40;;;-0.40;99.90;;;0.61;100.00;-19747.50;5091063;28;20767;-61
2022/03/08 04:45:04;;;;;;;7.53;5.50;;;-0.30;99.90;;;0.35;100.00;-19738.63;5091043;28;20718;-61
2022/03/08 04:47:35;;;;;;;8.20;5.50;;;-0.30;99.90;;;0.18;100.00;-19732.97;5091341;28;20211;-59
2022/03/08 04:50:04;;;;;;;8.33;4.97;;;-0.40;99.90;;;0.15;100.00;-19731.97;5091456;28;20288;-60
2022/03/08 04:52:32;;;;;;;7.87;5.30;;;-0.50;99.90;;;0.20;100.00;-19733.50;5090900;28;20312;-61
2022/03/08 04:55:01;;;;;;;7.77;5.23;;;-0.50;99.90;;;0.46;100.00;-19742.38;5091050;28;20425;-59
2022/03/08 04:57:28;;;;;;;9.83;5.63;;;-0.50;99.90;;;0.67;100.00;-19749.56;5090753;28;20229;-61
2022/03/08 04:59:57;;;;;;;8.60;5.40;;;-0.30;99.90;;;0.89;100.00;-19757.09;5091084;28;20228;-60
2022/03/08 05:02:25;;;;;;;9.53;6.10;;;-0.20;99.90;;;0.87;100.00;-19756.41;5091477;28;20225;-60
2022/03/08 05:04:55;;;;;;;8.07;5.70;;;-0.10;99.90;;;0.83;100.00;-19755.03;5090512;28;20327;-60
2022/03/08 05:07:23;;;;;;;10.13;5.87;;;-0.10;99.90;;;0.70;100.00;-19750.59;5090897;28;20315;-58
2022/03/08 05:09:51;;;;;;;10.27;6.50;;;-0.10;99.90;;;0.54;100.00;-19745.28;5090574;28;20236;-58
2022/03/08 05:12:19;;;;;;;11.07;6.03;;;-0.10;99.90;;;0.51;100.00;-19744.09;5090273;28;20519;-59
2022/03/08 05:14:47;;;;;;;8.87;5.77;;;-0.20;99.90;;;0.61;100.00;-19747.50;5090698;28;20259;-60
2022/03/08 05:17:15;;;;;;;9.83;6.17;;;-0.20;99.90;;;0.88;100.00;-19756.75;5091135;28;20271;-60
2022/03/08 05:19:43;;;;;;;8.60;5.57;;;-0.10;99.90;;;0.91;100.00;-19757.78;5090565;28;20225;-59
2022/03/08 05:22:12;;;;;;;8.80;6.03;;;-0.10;99.90;;;0.71;100.00;-19751.09;5090742;28;20234;-57
2022/03/08 05:24:40;;;;;;;7.87;5.77;;;-0.10;99.90;;;0.75;100.00;-19752.28;5090277;28;20220;-59
2022/03/08 05:27:08;;;;;;;8.60;6.30;;;-0.10;99.90;;;0.83;100.00;-19755.03;5090385;28;20231;-60
2022/03/08 05:29:36;;;;;;;10.90;6.50;;;-0.20;99.90;;;0.81;100.00;-19754.34;5090571;28;20287;-59
2022/03/08 05:32:06;;;;;;;7.23;5.83;;;-0.20;99.90;;;0.83;100.00;-19755.03;5090733;28;20667;-59
2022/03/08 05:34:34;;;;;;;9.67;5.87;;;-0.10;99.90;;;0.62;100.00;-19747.84;5090101;28;20232;-59
2022/03/08 05:37:02;;;;;;;7.77;6.23;;;-0.20;99.90;;;0.56;100.00;-19745.97;5090563;28;20310;-59
2022/03/08 05:39:33;;;;;;;8.33;5.93;;;-0.20;99.90;;;0.40;100.00;-19740.34;5090423;28;20656;-59
2022/03/08 05:42:01;;;;;;;8.37;6.07;;;-0.30;99.90;;;0.42;100.00;-19741.19;5090172;28;20594;-59
2022/03/08 05:44:29;;;;;;;10.67;6.10;;;-0.40;99.90;;;0.49;100.00;-19743.56;5091614;28;20286;-58
2022/03/08 05:46:57;;;;;;;8.20;6.00;;;-0.40;99.90;;;0.33;100.00;-19738.09;5094780;28;20688;-61
2022/03/08 05:49:25;;;;;;;8.47;6.20;;;-0.40;99.90;;;0.46;100.00;-19742.38;5094396;28;20229;-59
2022/03/08 05:51:53;;;;;;;8.20;6.57;;;-0.40;99.90;;;0.30;100.00;-19736.91;5094465;28;20258;-60
2022/03/08 05:54:21;;;;;;;12.33;6.47;;;-0.50;99.90;;;0.30;100.00;-19736.91;5094258;28;20443;-60
2022/03/08 05:56:51;;;;;;;10.13;6.10;;;-0.50;99.90;;;0.25;100.00;-19735.38;5094314;28;20207;-59
2022/03/08 05:59:19;;;;;;;9.13;6.17;;;-0.50;99.90;;;0.11;100.00;-19730.41;5094828;28;20200;-56
2022/03/08 06:01:47;;;;;;;8.93;6.73;;;-0.60;99.90;;;-0.11;100.00;-19723.25;5094472;28;20231;-60
2022/03/08 06:04:15;;;;;;;8.10;6.60;;;-0.70;99.90;;;-0.19;100.00;-19720.50;5094169;28;20233;-59
2022/03/08 06:06:43;;;;;;;9.97;6.60;;;-0.70;99.90;;;-0.06;100.00;-19724.78;5093870;28;20687;-59
2022/03/08 06:09:11;;;;;;;9.80;6.70;;;-0.70;99.90;;;-0.05;100.00;-19725.28;5094062;28;20226;-60
2022/03/08 06:11:39;;;;;;;8.97;6.77;;;-0.70;99.90;;;-0.13;100.00;-19722.38;5093983;28;20207;-60
2022/03/08 06:14:08;;;;;;;10.60;7.00;;;-0.70;99.90;;;-0.21;100.00;-19719.66;5094069;28;20222;-58
2022/03/08 06:16:36;;;;;;;9.07;7.03;;;-0.80;99.90;;;-0.22;100.00;-19719.31;5093695;28;20289;-60
2022/03/08 06:19:04;;;;;;;10.30;7.20;;;-0.80;99.90;;;-0.11;100.00;-19723.06;5093768;28;20257;-59
2022/03/08 06:21:33;;;;;;;8.67;7.03;;;-0.70;99.90;;;0.02;100.00;-19727.34;5093730;28;20310;-60
2022/03/08 06:24:01;;;;;;;13.13;6.80;;;-0.70;99.90;;;0.02;100.00;-19727.50;5093695;28;20218;-59
2022/03/08 06:26:29;;;;;;;9.77;7.50;;;-0.60;99.90;;;-0.03;100.00;-19725.78;5094322;28;20287;-60
2022/03/08 06:28:57;;;;;;;11.30;7.17;;;-0.60;99.90;;;-0.01;100.00;-19726.66;5093349;28;20311;-60
2022/03/08 06:31:26;;;;;;;10.00;8.17;;;-0.60;99.90;;;0.16;100.00;-19732.28;5093748;28;20215;-59
2022/03/08 06:33:54;;;;;;;8.93;7.07;;;-0.50;99.90;;;0.30;100.00;-19737.09;5093332;28;20719;-59
2022/03/08 06:36:27;;;;;;;10.00;7.53;;;-0.40;99.90;;;0.31;100.00;-19737.25;5093565;28;20250;-60
2022/03/08 06:38:55;;;;;;;11.43;7.80;;;-0.40;99.90;;;0.38;100.00;-19739.66;5093524;28;20351;-58
2022/03/08 06:41:24;;;;;;;9.87;7.50;;;-0.30;99.90;;;0.52;100.00;-19744.59;5093914;28;20579;-60
2022/03/08 06:43:53;;;;;;;8.70;7.03;;;-0.20;99.90;;;0.61;100.00;-19747.69;5093276;28;20319;-57
2022/03/08 06:46:21;;;;;;;9.93;7.47;;;-0.10;99.90;;;0.68;100.00;-19750.06;5093146;28;20248;-59
2022/03/08 06:48:50;;;;;;;9.27;6.73;;;0.00;99.90;;;0.74;100.00;-19752.13;5093024;28;20347;-58
2022/03/08 06:51:18;;;;;;;9.53;6.97;;;0.10;99.90;;;0.78;100.00;-19753.31;5093090;28;20231;-58
2022/03/08 06:53:46;;;;;;;9.47;7.20;;;0.10;99.90;;;1.22;100.00;-19768.38;5093227;28;20219;-60
2022/03/08 06:56:14;;;;;;;9.67;6.90;;;0.30;99.90;;;1.11;100.00;-19764.59;5092791;28;20207;-59
2022/03/08 06:58:42;;;;;;;10.13;7.20;;;0.30;99.90;;;1.17;100.00;-19766.66;5092870;28;20234;-60
2022/03/08 07:01:10;;;;;;;11.67;8.43;;;0.40;99.90;;;1.20;100.00;-19767.84;5093055;28;20231;-58
2022/03/08 07:03:39;;;;;;;9.27;7.60;;;0.50;99.90;;;1.27;100.00;-19770.06;5092687;28;20644;-59
2022/03/08 07:06:09;;;;;;;9.00;7.63;;;0.50;99.90;;;1.53;100.00;-19778.78;5092824;28;20230;-58
2022/03/08 07:08:38;;;;;;;11.13;7.30;;;0.70;99.90;;;1.77;100.00;-19787.00;5092856;28;20294;-60
2022/03/08 07:11:06;;;;;;;8.97;6.53;;;0.80;99.90;;;1.69;100.00;-19784.28;5093143;28;20677;-59
2022/03/08 07:13:34;;;;;;;11.03;6.97;;;0.80;99.90;;;1.75;100.00;-19786.31;5092612;28;20315;-60
2022/03/08 07:16:03;;;;;;;12.30;7.83;;;0.90;99.90;;;1.78;100.00;-19787.34;5092867;28;20224;-61
2022/03/08 07:18:32;;;;;;;11.13;7.70;;;0.90;99.90;;;1.85;100.00;-19789.75;5072393;28;20225;-57
2022/03/08 07:21:02;;;;;;;9.00;7.03;;;1.00;99.90;;;1.90;100.00;-19791.63;5072126;28;20224;-59
2022/03/08 07:23:32;;;;;;;9.90;6.73;;;1.10;99.90;;;2.22;98.63;-19802.56;5073038;28;20802;-61
2022/03/08 07:26:00;;;;;;;9.60;7.00;;;1.20;99.90;;;2.25;97.77;-19803.59;5072805;28;20297;-59
2022/03/08 07:28:29;;;;;;;8.53;6.50;;;1.20;99.90;;;2.34;97.12;-19806.50;5072333;28;20236;-60
2022/03/08 07:31:01;;;;;;;10.73;7.00;;;1.30;99.90;;;2.38;97.92;-19808.03;5072111;28;20623;-59
2022/03/08 07:33:30;;;;;;;8.13;7.20;;;1.50;99.90;;;2.47;97.61;-19811.09;5071901;28;20308;-59
2022/03/08 07:35:58;;;;;;;7.33;6.53;;;1.60;99.90;;;2.55;96.08;-19813.50;5072053;28;20598;-59
2022/03/08 07:38:26;;;;;;;8.60;6.43;;;1.70;99.90;;;2.61;95.79;-19815.72;5072458;28;20286;-60
2022/03/08 07:41:04;;;;;;;9.73;6.50;;;1.70;99.90;;;2.76;95.77;-19820.84;5091180;28;20244;-58
2022/03/08 07:43:34;;;;;;;8.60;6.20;;;1.90;99.90;;;2.89;95.54;-19825.31;5091528;28;20695;-59
2022/03/08 07:46:02;;;;;;;8.83;5.83;;;2.00;99.90;;;3.06;93.68;-19831.09;5091718;28;20258;-59
2022/03/08 07:48:30;;;;;;;6.50;5.60;;;2.10;99.90;;;3.14;93.70;-19833.84;5091790;28;20649;-59
2022/03/08 07:50:58;;;;;;;7.80;5.60;;;2.20;99.90;;;3.23;92.95;-19836.91;5064762;28;20220;-57
2022/03/08 07:53:27;;;;;;;8.10;5.43;;;2.30;99.90;;;3.36;91.90;-19841.19;5079656;28;20203;-59
2022/03/08 07:55:55;;;;;;;6.70;5.47;;;2.40;99.90;;;3.60;90.02;-19849.56;5083877;28;20215;-59
2022/03/08 07:58:24;;;;;;;7.77;5.50;;;2.50;99.90;;;3.60;90.68;-19849.56;5091592;28;20239;-55
2022/03/08 08:00:52;;;;;;;8.70;5.77;;;2.60;99.90;;;3.54;90.05;-19847.34;5073876;28;20315;-54
2022/03/08 08:03:20;;;;;;;6.40;4.97;;;2.60;99.90;;;3.64;90.13;-19850.78;5071477;28;20556;-52
2022/03/08 08:05:50;;;;;;;8.20;5.53;;;2.60;99.90;;;3.69;89.23;-19852.47;5071851;28;20308;-61
2022/03/08 08:08:18;;;;;;;7.50;5.23;;;2.70;99.90;;;3.99;88.45;-19862.56;5080087;28;20196;-62
2022/03/08 08:10:46;;;;;;;6.80;5.40;;;2.80;99.90;;;4.12;88.18;-19867.00;5092234;28;20300;-61
2022/03/08 08:13:13;;;;;;;7.47;5.70;;;3.00;99.90;;;4.13;87.24;-19867.53;5091735;28;20225;-63
2022/03/08 08:15:43;;;;;;;7.53;5.30;;;3.10;99.90;;;4.31;86.45;-19873.66;5092248;28;20237;-60
2022/03/08 08:18:18;;;;;;;8.50;5.60;;;3.20;99.90;;;4.41;86.01;-19877.09;5091861;28;20231;-61
2022/03/08 08:20:45;;;;;;;7.30;5.67;;;3.30;99.90;;;4.56;85.26;-19882.22;5091928;28;20220;-60
2022/03/08 08:23:13;;;;;;;6.97;5.27;;;3.50;99.90;;;4.70;85.62;-19886.84;5092266;28;20206;-61
2022/03/08 08:25:44;;;;;;;7.60;5.60;;;3.60;99.90;;;4.86;84.11;-19892.47;5080316;28;20633;-58
2022/03/08 08:28:12;;;;;;;8.43;5.70;;;3.80;99.90;;;5.02;83.07;-19897.59;5071135;28;20227;-58
2022/03/08 08:30:40;;;;;;;7.90;5.73;;;3.90;99.90;;;5.03;82.65;-19898.13;5071590;28;20304;-59
2022/03/08 08:33:11;;;;;;;8.23;5.73;;;3.90;99.90;;;5.25;82.00;-19905.47;5071207;28;20657;-60
2022/03/08 08:35:40;;;;;;;7.40;5.57;;;4.10;99.90;;;5.35;81.11;-19908.88;5071132;28;20389;-58
2022/03/08 08:38:08;;;;;;;7.20;5.37;;;4.30;99.90;;;5.44;81.04;-19911.97;5071816;28;20204;-54
2022/03/08 08:40:36;;;;;;;7.07;5.30;;;4.40;99.90;;;5.64;80.74;-19918.78;5070897;28;20600;-53
2022/03/08 08:43:05;;;;;;;5.93;5.30;;;4.50;99.90;;;5.73;79.27;-19921.88;5070886;28;20235;-57
2022/03/08 08:45:33;;;;;;;7.13;5.20;;;4.60;99.90;;;5.79;79.33;-19923.94;5071173;28;20228;-57
2022/03/08 08:48:02;;;;;;;7.47;5.80;;;4.70;99.90;;;5.90;78.21;-19927.84;5070764;28;20237;-58
2022/03/08 08:50:32;;;;;;;8.57;5.53;;;4.80;99.90;;;5.95;77.07;-19929.41;5071147;28;20207;-57
2022/03/08 08:53:01;;;;;;;9.67;6.10;;;4.90;99.90;;;5.95;77.50;-19929.56;5071586;28;20202;-57
2022/03/08 08:55:29;;;;;;;8.27;5.33;;;4.90;99.90;;;6.12;77.15;-19935.22;5070602;28;20232;-59
2022/03/08 08:57:57;;;;;;;7.63;5.30;;;5.00;99.90;;;6.09;76.02;-19934.34;5070888;28;20724;-55
2022/03/08 09:00:25;;;;;;;6.93;5.23;;;5.00;99.90;;;6.28;75.28;-19940.50;5086282;28;20220;-57
2022/03/08 09:02:53;;;;;;;6.57;5.50;;;5.10;99.90;;;6.26;75.46;-19940.00;5090450;28;20226;-60
2022/03/08 09:05:22;;;;;;;6.80;5.60;;;5.10;99.90;;;6.32;76.18;-19941.88;5090365;28;20202;-60
2022/03/08 09:07:51;;;;;;;7.30;5.10;;;5.20;99.90;;;6.42;75.04;-19945.28;5090686;28;20199;-55
2022/03/08 09:10:22;;;;;;;6.53;4.93;;;5.30;99.90;;;6.43;74.32;-19945.81;5090342;28;20240;-54
2022/03/08 09:12:51;;;;;;;8.07;5.10;;;5.20;99.90;;;6.45;74.60;-19946.50;5090569;28;20237;-53
2022/03/08 09:15:20;;;;;;;9.30;5.13;;;5.20;99.90;;;6.55;73.77;-19949.91;5090763;28;20234;-55
2022/03/08 09:17:49;;;;;;;6.40;5.67;;;5.30;99.90;;;6.64;73.32;-19952.97;5090643;28;20602;-52
2022/03/08 09:20:17;;;;;;;7.33;5.40;;;5.40;99.90;;;6.84;72.22;-19959.66;5090609;28;20517;-56
2022/03/08 09:22:50;;;;;;;7.57;5.33;;;5.60;99.90;;;6.81;73.21;-19958.63;5091393;28;20189;-52
2022/03/08 09:25:18;;;;;;;6.90;5.17;;;5.60;99.90;;;6.92;72.15;-19962.38;5090759;28;20241;-60
2022/03/08 09:27:47;;;;;;;8.57;5.27;;;5.70;99.90;;;7.02;72.11;-19965.78;5090218;28;20579;-60
2022/03/08 09:30:15;;;;;;;8.03;6.17;;;5.80;99.90;;;7.05;72.15;-19967.00;5090900;28;20222;-57
2022/03/08 09:32:43;;;;;;;6.83;5.27;;;5.80;99.90;;;7.03;71.03;-19966.31;5090655;28;20233;-58
2022/03/08 09:35:11;;;;;;;7.10;6.03;;;5.90;99.90;;;7.24;70.84;-19973.31;5091343;28;20463;-60
2022/03/08 09:37:39;;;;;;;7.57;5.13;;;6.00;99.90;;;7.31;70.48;-19975.72;5090846;28;20215;-60
2022/03/08 09:40:11;;;;;;;6.27;5.30;;;6.10;99.90;;;7.31;69.83;-19975.88;5090703;28;20307;-61
2022/03/08 09:42:39;;;;;;;7.20;5.03;;;6.20;99.90;;;7.51;69.26;-19982.53;5090024;28;20602;-57
2022/03/08 09:45:08;;;;;;;7.70;5.37;;;6.30;99.90;;;7.53;69.15;-19983.22;5090436;28;20236;-59
2022/03/08 09:47:38;;;;;;;7.43;5.67;;;6.30;99.90;;;7.52;68.85;-19982.88;5090530;28;20301;-59
2022/03/08 09:50:08;;;;;;;8.23;4.73;;;6.40;99.90;;;7.59;68.43;-19985.09;5090644;28;20613;-59
2022/03/08 09:52:39;;;;;;;6.87;4.83;;;6.40;99.90;;;7.61;67.79;-19985.97;5090395;28;20227;-60
2022/03/08 09:55:14;;;;;;;5.77;4.10;;;6.40;99.90;;;7.53;67.94;-19983.06;5090066;28;20220;-61
2022/03/08 09:57:42;;;;;;;6.77;4.60;;;6.40;99.90;;;7.58;67.98;-19984.94;5090158;28;20235;-60
2022/03/08 10:00:12;;;;;;;6.27;4.40;;;6.40;99.90;;;7.78;66.12;-19991.78;5089907;28;20234;-51
2022/03/08 10:02:49;;;;;;;7.13;4.60;;;6.60;99.90;;;7.84;65.76;-19993.66;5090575;28;20460;-54
2022/03/08 10:05:23;;;;;;;5.67;4.10;;;6.60;99.90;;;8.00;64.78;-19999.13;5091343;28;20219;-53
2022/03/08 10:08:13;;;;;;;5.47;4.10;;;6.80;99.90;;;8.08;64.76;-20001.84;5091061;28;20249;-55
2022/03/08 10:10:50;;;;;;;4.63;3.53;;;6.90;99.90;;;8.12;63.02;-20003.22;5090511;28;20224;-59
2022/03/08 10:13:24;;;;;;;5.97;3.80;;;6.90;99.90;;;8.20;62.61;-20005.97;5090247;28;20238;-60
2022/03/08 10:16:07;;;;;;;4.90;4.00;;;6.90;99.90;;;8.30;62.81;-20009.38;5090429;28;20224;-59
2022/03/08 10:18:38;;;;;;;4.83;3.37;;;7.00;99.90;;;8.29;61.11;-20009.22;5090283;28;20233;-61
2022/03/08 10:21:25;;;;;;;3.87;2.90;;;7.10;99.90;;;8.28;58.79;-20008.69;5090460;28;20227;-60
2022/03/08 10:23:54;;;;;;;3.83;3.10;;;7.10;99.90;;;8.39;57.35;-20012.44;5090541;28;20216;-59
2022/03/08 10:26:24;;;;;;;4.20;3.17;;;7.10;99.90;;;8.24;58.92;-20007.50;5090365;28;20204;-60
2022/03/08 10:28:55;;;;;;;3.67;2.80;;;7.10;99.90;;;8.27;59.16;-20008.53;5090776;28;20203;-60